createdAt,value
2022-12-20T00:01:28.015Z,72.97
2022-12-20T00:03:56.789Z,70.44
2022-12-20T00:06:24.618Z,68.69
2022-12-20T00:08:59.737Z,67.98
2022-12-20T00:11:28.026Z,67.44
2022-12-20T00:13:54.949Z,68.40
2022-12-20T00:16:24.856Z,70.06
2022-12-20T00:18:53.881Z,72.97
2022-12-20T00:21:20.773Z,71.15
2022-12-20T00:23:47.749Z,71.43
2022-12-20T00:26:17.217Z,72.23
2022-12-20T00:28:45.572Z,70.58
2022-12-20T00:31:15.970Z,70.29
2022-12-20T00:33:46.869Z,69.36
2022-12-20T00:36:14.133Z,69.20
2022-12-20T00:38:41.303Z,67.85
2022-12-20T00:41:11.085Z,67.58
2022-12-20T00:43:39.318Z,67.47
2022-12-20T00:46:07.952Z,72.50
2022-12-20T00:48:35.484Z,75.56
2022-12-20T00:51:11.460Z,78.25
2022-12-20T00:53:39.724Z,76.88
2022-12-20T00:56:07.646Z,78.24
2022-12-20T00:58:37.147Z,77.90
2022-12-20T01:01:06.331Z,79.32
2022-12-20T01:03:33.591Z,79.22
2022-12-20T01:06:02.127Z,76.58
2022-12-20T01:08:30.981Z,73.17
2022-12-20T01:11:01.776Z,71.15
2022-12-20T01:13:30.121Z,73.63
2022-12-20T01:15:57.602Z,71.85
2022-12-20T01:18:24.496Z,70.53
2022-12-20T01:21:01.500Z,68.84
2022-12-20T01:23:28.558Z,67.88
2022-12-20T01:25:58.345Z,68.34
2022-12-20T01:28:25.335Z,68.79
2022-12-20T01:30:52.482Z,70.21
2022-12-20T01:33:19.531Z,70.98
2022-12-20T01:36:13.727Z,73.07
2022-12-20T01:38:40.597Z,73.02
2022-12-20T01:41:07.525Z,74.53
2022-12-20T01:43:49.982Z,77.33
2022-12-20T01:46:17.809Z,75.75
2022-12-20T01:49:10.946Z,75.61
2022-12-20T01:51:44.792Z,75.34
2022-12-20T01:54:19.127Z,72.74
2022-12-20T01:56:54.139Z,75.52
2022-12-20T01:59:21.201Z,73.30
2022-12-20T02:01:48.291Z,74.36
2022-12-20T02:04:15.267Z,76.00
2022-12-20T02:06:43.554Z,73.29
2022-12-20T02:09:10.671Z,74.99
2022-12-20T02:11:53.421Z,76.77
2022-12-20T02:14:43.461Z,78.25
2022-12-20T02:17:22.589Z,76.02
2022-12-20T02:20:33.239Z,72.07
2022-12-20T02:23:00.092Z,70.99
2022-12-20T02:25:57.969Z,73.80
2022-12-20T02:28:33.829Z,73.79
2022-12-20T02:31:05.409Z,72.70
2022-12-20T02:33:32.449Z,73.14
2022-12-20T02:35:59.874Z,72.67
2022-12-20T02:38:34.928Z,70.81
2022-12-20T02:41:08.294Z,70.33
2022-12-20T02:43:58.239Z,70.54
2022-12-20T02:46:27.592Z,71.96
2022-12-20T02:48:58.403Z,74.24
2022-12-20T02:51:28.756Z,72.37
2022-12-20T02:53:57.482Z,72.78
2022-12-20T02:56:36.624Z,74.16
2022-12-20T02:59:11.581Z,71.85
2022-12-20T03:02:01.180Z,70.15
2022-12-20T03:04:31.121Z,71.09
2022-12-20T03:06:58.059Z,74.82
2022-12-20T03:09:25.157Z,74.62
2022-12-20T03:11:53.541Z,72.53
2022-12-20T03:14:20.612Z,73.68
2022-12-20T03:16:49.582Z,74.36
2022-12-20T03:19:16.826Z,76.47
2022-12-20T03:21:43.835Z,74.19
2022-12-20T03:24:16.374Z,72.71
2022-12-20T03:26:43.856Z,71.16
2022-12-20T03:29:11.008Z,72.34
2022-12-20T03:31:39.042Z,73.21
2022-12-20T03:34:06.623Z,71.63
2022-12-20T03:36:35.013Z,69.38
2022-12-20T03:39:05.110Z,68.65
2022-12-20T03:41:36.244Z,69.74
2022-12-20T03:44:06.931Z,69.86
2022-12-20T03:46:34.191Z,69.53
2022-12-20T03:49:01.169Z,70.97
2022-12-20T03:51:29.507Z,72.77
2022-12-20T03:53:57.129Z,71.59
2022-12-20T03:56:34.903Z,72.58
2022-12-20T03:59:04.428Z,74.35
2022-12-20T04:01:31.703Z,74.82
2022-12-20T04:03:59.369Z,75.03
2022-12-20T04:06:27.440Z,75.91
2022-12-20T04:08:54.639Z,73.26
2022-12-20T04:11:27.785Z,70.98
2022-12-20T04:14:21.017Z,70.35
2022-12-20T04:16:49.334Z,70.22
2022-12-20T04:19:16.824Z,73.73
2022-12-20T04:21:46.902Z,76.40
2022-12-20T04:24:15.753Z,74.97
2022-12-20T04:27:00.846Z,74.60
2022-12-20T04:29:28.173Z,73.00
2022-12-20T04:31:55.427Z,70.84
2022-12-20T04:34:22.974Z,69.84
2022-12-20T04:36:50.046Z,69.30
2022-12-20T04:39:25.783Z,74.18
2022-12-20T04:42:16.300Z,73.70
2022-12-20T04:44:43.879Z,72.70
2022-12-20T04:47:11.588Z,70.35
2022-12-20T04:49:38.614Z,69.63
2022-12-20T04:52:24.506Z,68.62
2022-12-20T04:54:51.441Z,72.59
2022-12-20T04:57:24.225Z,72.06
2022-12-20T04:59:52.085Z,71.38
2022-12-20T05:02:19.447Z,72.57
2022-12-20T05:04:53.221Z,71.63
2022-12-20T05:07:20.354Z,71.46
2022-12-20T05:09:51.452Z,70.67
2022-12-20T05:12:18.303Z,74.86
2022-12-20T05:14:45.664Z,76.16
2022-12-20T05:17:15.638Z,72.87
2022-12-20T05:19:42.520Z,70.88
2022-12-20T05:22:29.910Z,73.88
2022-12-20T05:25:30.775Z,71.26
2022-12-20T05:28:01.678Z,69.66
2022-12-20T05:30:33.108Z,69.70
2022-12-20T05:33:00.196Z,70.62
2022-12-20T05:35:28.006Z,71.09
2022-12-20T05:38:02.924Z,72.51
2022-12-20T05:40:31.008Z,74.71
2022-12-20T05:42:58.846Z,73.92
2022-12-20T05:45:35.561Z,72.41
2022-12-20T05:48:07.841Z,75.02
2022-12-20T05:50:38.473Z,75.43
2022-12-20T05:53:24.357Z,73.30
2022-12-20T05:55:54.724Z,71.64
2022-12-20T05:58:26.748Z,70.24
2022-12-20T06:01:01.081Z,71.20
2022-12-20T06:03:28.667Z,71.35
2022-12-20T06:05:56.144Z,70.16
2022-12-20T06:08:27.490Z,70.38
2022-12-20T06:10:56.191Z,70.29
2022-12-20T06:13:24.277Z,70.46
2022-12-20T06:15:53.940Z,70.04
2022-12-20T06:18:22.046Z,69.67
2022-12-20T06:20:53.774Z,70.86
2022-12-20T06:23:23.485Z,67.35
2022-12-20T06:26:04.929Z,65.69
2022-12-20T06:28:35.578Z,65.68
2022-12-20T06:31:02.815Z,65.86
2022-12-20T06:33:40.515Z,68.25
2022-12-20T06:36:07.813Z,69.45
2022-12-20T06:38:35.854Z,66.17
2022-12-20T06:41:03.491Z,64.35
2022-12-20T06:43:31.321Z,64.96
2022-12-20T06:45:58.299Z,64.43
2022-12-20T06:48:25.488Z,63.95
2022-12-20T06:50:56.094Z,65.19
2022-12-20T06:53:24.858Z,66.78
2022-12-20T06:55:51.811Z,69.75
2022-12-20T06:58:21.514Z,69.44
2022-12-20T07:00:49.421Z,67.99
2022-12-20T07:03:16.830Z,66.82
2022-12-20T07:05:43.824Z,65.31
2022-12-20T07:08:10.791Z,65.69
2022-12-20T07:10:38.274Z,66.56
2022-12-20T07:13:05.364Z,63.51
2022-12-20T07:15:32.612Z,62.20
2022-12-20T07:17:59.706Z,60.72
2022-12-20T07:20:26.676Z,59.58
2022-12-20T07:22:53.738Z,63.49
2022-12-20T07:25:21.016Z,59.25
2022-12-20T07:27:50.060Z,52.91
2022-12-20T07:30:18.337Z,49.32
2022-12-20T07:32:45.500Z,45.29
2022-12-20T07:35:13.662Z,42.76
2022-12-20T07:37:41.177Z,40.62
2022-12-20T07:40:09.724Z,37.86
2022-12-20T07:42:39.045Z,38.64
2022-12-20T07:45:07.834Z,41.86
2022-12-20T07:47:35.998Z,41.56
2022-12-20T07:50:03.787Z,43.53
2022-12-20T07:52:34.627Z,40.76
2022-12-20T07:55:04.088Z,43.29
2022-12-20T07:57:57.562Z,40.68
2022-12-20T08:00:24.954Z,42.26
2022-12-20T08:03:02.984Z,40.31
2022-12-20T08:05:30.886Z,39.18
2022-12-20T08:08:00.272Z,35.82
2022-12-20T08:10:28.269Z,33.47
2022-12-20T08:12:55.727Z,32.96
2022-12-20T08:15:23.265Z,34.56
2022-12-20T08:17:50.888Z,32.42
2022-12-20T08:20:17.912Z,30.55
2022-12-20T08:22:45.328Z,31.08
2022-12-20T08:25:12.507Z,32.93
2022-12-20T08:27:39.496Z,35.18
2022-12-20T08:30:08.560Z,39.05
2022-12-20T08:32:36.412Z,40.69
2022-12-20T08:35:04.441Z,44.63
2022-12-20T08:37:31.442Z,47.00
2022-12-20T08:39:58.504Z,47.44
2022-12-20T08:42:25.440Z,45.43
2022-12-20T08:44:52.271Z,45.07
2022-12-20T08:47:19.168Z,44.24
2022-12-20T08:49:48.061Z,42.67
2022-12-20T08:52:15.392Z,44.53
2022-12-20T08:54:42.341Z,43.64
2022-12-20T08:57:09.260Z,41.52
2022-12-20T08:59:36.187Z,37.11
2022-12-20T09:02:03.209Z,33.50
2022-12-20T09:04:30.490Z,33.70
2022-12-20T09:06:57.391Z,33.88
2022-12-20T09:09:24.316Z,33.79
2022-12-20T09:11:51.198Z,33.65
2022-12-20T09:14:18.617Z,33.03
2022-12-20T09:16:45.499Z,33.62
2022-12-20T09:19:14.392Z,35.44
2022-12-20T09:21:41.615Z,33.71
2022-12-20T09:24:09.868Z,32.41
2022-12-20T09:26:37.111Z,34.66
2022-12-20T09:29:05.318Z,35.89
2022-12-20T09:31:32.275Z,35.69
2022-12-20T09:33:59.975Z,35.30
2022-12-20T09:36:29.446Z,36.08
2022-12-20T09:38:57.477Z,34.21
2022-12-20T09:41:33.429Z,36.54
2022-12-20T09:44:05.596Z,35.47
2022-12-20T09:46:33.502Z,33.49
2022-12-20T09:49:00.704Z,36.75
2022-12-20T09:52:08.709Z,36.43
2022-12-20T09:54:50.042Z,37.08
2022-12-20T09:57:44.597Z,34.81
2022-12-20T10:00:21.122Z,36.72
2022-12-20T10:03:04.237Z,37.18
2022-12-20T10:05:51.817Z,40.04
2022-12-20T10:08:43.192Z,40.96
2022-12-20T10:11:29.584Z,40.54
2022-12-20T10:14:08.840Z,42.72
2022-12-20T10:16:53.904Z,44.41
2022-12-20T10:19:26.764Z,45.69
2022-12-20T10:22:14.494Z,48.30
2022-12-20T10:24:48.240Z,47.58
2022-12-20T10:27:19.933Z,47.45
2022-12-20T10:29:49.698Z,46.90
2022-12-20T10:32:20.509Z,49.05
2022-12-20T10:34:56.757Z,47.53
2022-12-20T10:37:23.674Z,46.79
2022-12-20T10:39:52.190Z,44.12
2022-12-20T10:42:36.292Z,44.97
2022-12-20T10:45:03.840Z,45.99
2022-12-20T10:47:44.496Z,42.16
2022-12-20T10:50:23.015Z,38.73
2022-12-20T10:53:08.166Z,34.98
2022-12-20T10:55:36.969Z,35.85
2022-12-20T10:58:07.259Z,35.68
2022-12-20T11:00:34.465Z,37.65
2022-12-20T11:03:22.273Z,34.44
2022-12-20T11:05:59.792Z,35.21
2022-12-20T11:08:45.019Z,32.82
2022-12-20T11:11:24.829Z,30.11
2022-12-20T11:13:52.836Z,34.71
2022-12-20T11:16:40.478Z,41.53
2022-12-20T11:19:21.266Z,41.17
2022-12-20T11:22:05.041Z,39.84
2022-12-20T11:24:44.306Z,38.28
2022-12-20T11:27:28.904Z,36.50
2022-12-20T11:30:09.882Z,33.51
2022-12-20T11:32:53.874Z,35.16
2022-12-20T11:35:58.549Z,35.72
2022-12-20T11:38:32.788Z,35.34
2022-12-20T11:41:38.361Z,36.41
2022-12-20T11:44:48.696Z,35.43
2022-12-20T11:47:49.170Z,38.22
2022-12-20T11:50:27.882Z,41.46
2022-12-20T11:53:00.355Z,41.15
2022-12-20T11:55:32.223Z,41.98
2022-12-20T11:58:20.883Z,44.34
2022-12-20T12:00:56.371Z,42.71
2022-12-20T12:03:36.933Z,41.75
2022-12-20T12:06:16.393Z,42.68
2022-12-20T12:09:05.295Z,41.10
2022-12-20T12:14:29.967Z,38.52
2022-12-20T12:17:03.952Z,39.76
2022-12-20T12:19:32.130Z,39.75
2022-12-20T12:22:10.215Z,41.66
2022-12-20T12:24:43.861Z,43.36
2022-12-20T12:27:28.218Z,42.43
2022-12-20T12:29:58.788Z,44.03
2022-12-20T12:32:38.250Z,46.59
2022-12-20T12:35:36.237Z,47.87
2022-12-20T12:38:24.385Z,49.79
2022-12-20T12:41:15.814Z,49.89
2022-12-20T12:43:53.585Z,51.32
2022-12-20T12:46:29.110Z,53.97
2022-12-20T12:49:01.949Z,54.82
2022-12-20T12:51:33.147Z,53.63
2022-12-20T12:54:10.345Z,53.49
2022-12-20T12:56:51.346Z,51.96
2022-12-20T12:59:24.344Z,51.58
2022-12-20T13:01:54.099Z,51.34
2022-12-20T13:04:21.175Z,52.65
2022-12-20T13:06:48.075Z,53.10
2022-12-20T13:09:25.481Z,52.56
2022-12-20T13:12:01.123Z,53.60
2022-12-20T13:14:30.232Z,53.39
2022-12-20T13:17:12.353Z,52.24
2022-12-20T13:19:51.107Z,51.84
2022-12-20T13:22:18.046Z,53.68
2022-12-20T13:24:53.405Z,53.00
2022-12-20T13:27:39.508Z,52.60
2022-12-20T13:30:12.332Z,53.59
2022-12-20T13:32:48.464Z,53.19
2022-12-20T13:35:28.217Z,55.34
2022-12-20T13:38:26.101Z,55.80
2022-12-20T13:41:00.710Z,55.24
2022-12-20T13:43:41.361Z,57.06
2022-12-20T13:46:11.410Z,56.80
2022-12-20T13:48:38.412Z,55.17
2022-12-20T13:51:10.742Z,55.34
2022-12-20T13:53:39.394Z,55.47
2022-12-20T13:56:33.689Z,56.23
2022-12-20T13:59:07.546Z,57.62
2022-12-20T14:01:36.359Z,57.18
2022-12-20T14:04:07.487Z,57.57
2022-12-20T14:06:35.352Z,58.02
2022-12-20T14:09:03.751Z,57.67
2022-12-20T14:11:30.741Z,58.18
2022-12-20T14:13:57.644Z,58.23
2022-12-20T14:16:27.066Z,57.85
2022-12-20T14:18:57.144Z,58.78
2022-12-20T14:21:25.750Z,58.27
2022-12-20T14:23:57.618Z,58.27
2022-12-20T14:26:28.641Z,62.04
2022-12-20T14:28:58.285Z,63.08
2022-12-20T14:31:44.469Z,64.15
2022-12-20T14:34:11.298Z,66.02
2022-12-20T14:36:40.259Z,66.82
2022-12-20T14:39:29.798Z,67.57
2022-12-20T14:42:01.819Z,67.78
2022-12-20T14:44:32.445Z,67.07
2022-12-20T14:47:04.163Z,67.53
2022-12-20T14:49:34.538Z,67.81
2022-12-20T14:52:34.561Z,65.28
2022-12-20T14:55:28.754Z,63.92
2022-12-20T14:57:58.074Z,62.85
2022-12-20T15:00:31.629Z,64.01
2022-12-20T15:03:12.946Z,63.36
2022-12-20T15:05:45.544Z,62.28
2022-12-20T15:08:14.756Z,62.23
2022-12-20T15:11:03.605Z,65.20
2022-12-20T15:13:37.427Z,65.75
2022-12-20T15:16:14.049Z,65.65
2022-12-20T15:18:41.068Z,63.92
2022-12-20T15:21:29.368Z,63.78
2022-12-20T15:23:59.768Z,63.68
2022-12-20T15:26:28.534Z,63.19
2022-12-20T15:28:55.896Z,64.13
2022-12-20T15:31:32.454Z,63.85
2022-12-20T15:34:02.524Z,63.05
2022-12-20T15:36:30.179Z,63.74
2022-12-20T15:39:14.760Z,62.95
2022-12-20T15:41:47.410Z,63.89
2022-12-20T15:44:25.390Z,64.84
2022-12-20T15:46:52.980Z,66.27
2022-12-20T15:49:23.763Z,68.14
2022-12-20T15:51:52.538Z,69.98
2022-12-20T15:54:32.972Z,70.27
2022-12-20T15:57:07.691Z,70.62
2022-12-20T16:02:23.569Z,69.67
2022-12-20T16:04:51.426Z,70.02
2022-12-20T16:07:18.696Z,70.42
2022-12-20T16:09:45.802Z,70.70
2022-12-20T16:12:29.678Z,71.27
2022-12-20T16:14:57.392Z,71.34
2022-12-20T16:17:24.459Z,71.02
2022-12-20T16:19:51.415Z,71.78
2022-12-20T16:22:22.336Z,71.96
2022-12-20T16:24:49.868Z,72.34
2022-12-20T16:27:17.010Z,73.31
2022-12-20T16:29:43.875Z,74.76
2022-12-20T16:32:19.793Z,74.36
2022-12-20T16:34:47.439Z,74.55
2022-12-20T16:37:14.431Z,75.14
2022-12-20T16:39:42.164Z,75.74
2022-12-20T16:42:17.325Z,76.07
2022-12-20T16:44:45.673Z,75.32
2022-12-20T16:47:14.365Z,75.35
2022-12-20T16:49:51.202Z,74.82
2022-12-20T16:52:19.988Z,75.05
2022-12-20T16:54:46.987Z,75.01
2022-12-20T16:57:13.967Z,74.12
2022-12-20T16:59:40.869Z,73.52
2022-12-20T17:02:27.739Z,72.98
2022-12-20T17:04:54.949Z,73.45
2022-12-20T17:07:22.333Z,72.88
2022-12-20T17:09:49.310Z,71.54
2022-12-20T17:12:18.302Z,71.81
2022-12-20T17:14:46.358Z,71.12
2022-12-20T17:17:13.641Z,71.47
2022-12-20T17:19:40.584Z,70.85
2022-12-20T17:22:23.143Z,72.00
2022-12-20T17:24:50.088Z,72.91
2022-12-20T17:27:16.986Z,72.30
2022-12-20T17:29:44.067Z,70.70
2022-12-20T17:32:22.124Z,69.90
2022-12-20T17:34:49.640Z,71.20
2022-12-20T17:37:18.263Z,71.83
2022-12-20T17:39:45.507Z,73.01
2022-12-20T17:42:16.804Z,72.80
2022-12-20T17:44:44.181Z,73.22
2022-12-20T17:47:11.887Z,74.37
2022-12-20T17:49:39.303Z,75.09
2022-12-20T17:52:06.300Z,73.48
2022-12-20T17:54:39.534Z,72.15
2022-12-20T17:57:14.599Z,72.37
2022-12-20T17:59:42.626Z,72.88
2022-12-20T18:02:27.843Z,74.16
2022-12-20T18:04:55.085Z,73.54
2022-12-20T18:07:22.065Z,73.71
2022-12-20T18:09:49.396Z,72.19
2022-12-20T18:12:17.256Z,71.72
2022-12-20T18:14:44.926Z,72.89
2022-12-20T18:17:11.976Z,73.48
2022-12-20T18:19:39.657Z,73.33
2022-12-20T18:22:06.659Z,73.22
2022-12-20T18:24:33.699Z,74.92
2022-12-20T18:27:00.651Z,78.99
2022-12-20T18:29:28.583Z,76.45
2022-12-20T18:31:55.486Z,75.88
2022-12-20T18:34:22.586Z,76.45
2022-12-20T18:36:49.420Z,74.79
2022-12-20T18:39:16.497Z,75.22
2022-12-20T18:41:44.340Z,75.39
2022-12-20T18:44:12.019Z,76.02
2022-12-20T18:46:39.266Z,76.48
2022-12-20T18:49:06.510Z,76.17
2022-12-20T18:51:38.658Z,77.57
2022-12-20T18:54:08.106Z,79.49
2022-12-20T18:56:37.802Z,82.28
2022-12-20T18:59:14.197Z,84.73
2022-12-20T19:01:43.286Z,84.69
2022-12-20T19:04:11.464Z,85.03
2022-12-20T19:06:38.979Z,83.75
2022-12-20T19:09:09.903Z,83.04
2022-12-20T19:11:37.807Z,82.13
2022-12-20T19:14:05.080Z,81.17
2022-12-20T19:16:33.231Z,80.44
2022-12-20T19:19:04.385Z,80.36
2022-12-20T19:21:35.848Z,79.97
2022-12-20T19:24:06.989Z,80.81
2022-12-20T19:26:36.508Z,79.92
2022-12-20T19:29:04.732Z,79.27
2022-12-20T19:31:34.469Z,79.49
2022-12-20T19:34:04.696Z,79.91
2022-12-20T19:36:38.535Z,80.06
2022-12-20T19:39:08.063Z,80.13
2022-12-20T19:41:35.720Z,80.53
2022-12-20T19:44:03.825Z,80.82
2022-12-20T19:46:30.884Z,80.61
2022-12-20T19:48:59.542Z,80.23
2022-12-20T19:51:27.976Z,80.05
2022-12-20T19:53:56.413Z,80.69
2022-12-20T19:56:26.351Z,81.59
2022-12-20T19:58:54.054Z,81.47
2022-12-20T20:01:25.685Z,81.42
2022-12-20T20:03:59.332Z,80.53
2022-12-20T20:06:27.491Z,79.88
2022-12-20T20:08:57.808Z,80.84
2022-12-20T20:11:25.291Z,81.26
2022-12-20T20:13:52.185Z,81.23
2022-12-20T20:16:22.571Z,80.95
2022-12-20T20:18:50.672Z,80.75
2022-12-20T20:21:22.041Z,81.71
2022-12-20T20:23:53.962Z,81.99
2022-12-20T20:26:24.989Z,79.08
2022-12-20T20:28:52.966Z,78.88
2022-12-20T20:31:21.559Z,78.57
2022-12-20T20:33:49.321Z,77.87
2022-12-20T20:36:19.778Z,79.20
2022-12-20T20:38:46.891Z,79.17
2022-12-20T20:41:14.461Z,80.58
2022-12-20T20:43:41.944Z,80.82
2022-12-20T20:46:11.665Z,82.62
2022-12-20T20:48:39.543Z,83.00
2022-12-20T20:51:07.185Z,86.66
2022-12-20T20:53:34.741Z,86.93
2022-12-20T20:56:06.389Z,85.10
2022-12-20T20:58:34.415Z,84.57
2022-12-20T21:01:03.501Z,83.76
2022-12-20T21:03:32.165Z,83.20
2022-12-20T21:08:46.083Z,82.15
2022-12-20T21:11:13.290Z,83.04
2022-12-20T21:13:40.445Z,85.18
2022-12-20T21:16:13.664Z,86.41
2022-12-20T21:18:40.634Z,85.92
2022-12-20T21:21:12.704Z,85.42
2022-12-20T21:23:43.706Z,89.52
2022-12-20T21:26:10.693Z,90.49
2022-12-20T21:28:37.671Z,90.12
2022-12-20T21:31:09.151Z,93.06
2022-12-20T21:33:36.468Z,94.05
2022-12-20T21:36:15.501Z,91.82
2022-12-20T21:38:42.983Z,90.21
2022-12-20T21:41:13.293Z,89.84
2022-12-20T21:43:40.370Z,87.90
2022-12-20T21:46:11.463Z,85.59
2022-12-20T21:48:40.219Z,85.63
2022-12-20T21:51:14.030Z,85.36
2022-12-20T21:53:50.128Z,85.68
2022-12-20T21:56:18.697Z,85.00
2022-12-20T21:58:46.074Z,84.89
2022-12-20T22:01:15.928Z,85.08
2022-12-20T22:03:45.514Z,84.77
2022-12-20T22:06:12.661Z,83.91
2022-12-20T22:08:39.805Z,83.76
2022-12-20T22:11:12.242Z,84.26
2022-12-20T22:13:41.978Z,84.38
2022-12-20T22:16:23.362Z,84.17
2022-12-20T22:18:52.305Z,83.12
2022-12-20T22:21:21.998Z,84.05
2022-12-20T22:23:50.271Z,83.53
2022-12-20T22:26:20.123Z,84.29
2022-12-20T22:29:04.939Z,84.90
2022-12-20T22:31:32.630Z,85.83
2022-12-20T22:34:00.100Z,89.63
2022-12-20T22:36:27.495Z,91.78
2022-12-20T22:38:56.711Z,90.09
2022-12-20T22:41:29.080Z,87.93
2022-12-20T22:43:58.277Z,86.90
2022-12-20T22:46:25.726Z,87.29
2022-12-20T22:48:52.716Z,87.90
2022-12-20T22:51:21.882Z,86.11
2022-12-20T22:53:49.519Z,87.18
2022-12-20T22:56:19.585Z,86.83
2022-12-20T22:58:46.861Z,85.14
2022-12-20T23:01:15.855Z,82.54
2022-12-20T23:03:43.305Z,84.77
2022-12-20T23:06:13.689Z,85.12
2022-12-20T23:08:41.307Z,84.85
2022-12-20T23:11:36.810Z,82.67
2022-12-20T23:14:23.578Z,86.59
2022-12-20T23:16:51.324Z,88.25
2022-12-20T23:19:18.400Z,88.09
2022-12-20T23:22:03.663Z,88.69
2022-12-20T23:24:30.541Z,89.16
2022-12-20T23:26:57.809Z,90.67
2022-12-20T23:29:24.740Z,91.24
2022-12-20T23:31:51.737Z,90.92
2022-12-20T23:34:18.765Z,90.55
2022-12-20T23:36:45.891Z,90.86
2022-12-20T23:39:12.939Z,92.34
2022-12-20T23:41:40.655Z,92.49
2022-12-20T23:44:07.640Z,92.91
2022-12-20T23:46:34.840Z,94.44
2022-12-20T23:49:01.884Z,94.43
2022-12-20T23:51:28.915Z,94.71
2022-12-20T23:53:55.816Z,93.18
2022-12-20T23:56:23.596Z,92.77
2022-12-20T23:58:53.700Z,93.29
